Pagina principale
METAR-TAF:

METAR-TAF

Aeroporti :

Chugiak, Alaska, Stati Uniti

latitudine: 61-25N, longitudine: 149-31W, altezza: 29 m

Osservazione

Il bollettino è stato emesso 36 minuti fa, alle 02:56 UTC
Vento 8 kt da sud/sud-ovest
Temperature 14°C
Umidità 51%
Pressione 1001 hPa
Visibilità: 16.1 km
Poco nuvoloso ad un'altezza di 7500 ft
Nubi sparse ad un'altezza di 9000 ft

METAR: PABV 260256Z AUTO 20008KT 10SM FEW075 SCT090 14/04 A2957 RMK AO2 SLP019 T01440039 56001

Ora: 19:32 (03:32 UTC)


TAF: mancante

Osservazioni e previsioni meteorologiche di più di 4000 aeroporti (messaggi METAR e TAF).

Le stazioni disponibili sono rappresentate dai dischi gialli e rossi sulla carta.

Puntare il mouse per vedere il nome della stazione.

Clicca sopra per visualizzare le osservazioni e previsioni meteorologiche.

Per cambiare la mappa : fare clic sui pulsanti verdi con una croce nera per ingrandire, il pulsante verde con un trattino per diminuire, o sulla freccia verde per le mappe adiacenti.


METAR-TAF: